Aviation Digital Data Service (ADDS)

Output produced by TAFs form (1611 UTC 14 August 2018)
found at http://www.aviationweather.gov/adds/tafs/
 
KAVL 141554Z 01006KT 10SM CLR 26/17 A3013 RMK AO2 SLP176 T02610172
KAVL 141232Z 1413/1512 34004KT P6SM FEW040 
     FM141600 33007KT P6SM SCT050 
     FM150100 34003KT P6SM SCT250 
     FM150900 00000KT 5SM BR SCT250